Time;durP1;ratioP1;P1;durP2;ratioP2;P2;SDS_P1;SDS_P2;PMS_P1;PMS_P2;Temp;Humidity;BMP_temperature;BMP_pressure;BME280_temperature;BME280_humidity;BME280_pressure;Samples;Min_cycle;Max_cycle;Signal;HPM_P1;HPM_P2
2023/06/09 04:23:38;;;;;;;12.80;7.90;;;;;;;10.63;87.10;96266.13;2082537;28;20576;-55
2023/06/09 09:16:34;;;;;;;6.38;2.75;;;;;;;25.01;48.71;96299.06;2074362;27;20581;-58
2023/06/09 09:18:49;;;;;;;9.50;3.33;;;;;;;24.48;48.68;96311.84;2083088;28;20559;-57
2023/06/09 09:21:02;;;;;;;7.40;4.15;;;;;;;25.47;47.93;96308.38;2083606;28;20577;-58
2023/06/09 09:23:27;;;;;;;5.15;3.22;;;;;;;25.08;47.32;96296.56;2106352;27;20555;-57
2023/06/09 09:25:43;;;;;;;6.05;2.70;;;;;;;25.82;47.42;96309.78;2089050;27;20577;-58
2023/06/09 09:28:09;;;;;;;10.15;3.53;;;;;;;25.83;46.89;96310.66;2097918;27;20555;-57
2023/06/09 09:30:47;;;;;;;10.50;3.67;;;;;;;24.49;48.88;96302.00;2090314;27;20550;-57
2023/06/09 09:33:26;;;;;;;5.60;3.70;;;;;;;25.51;47.02;96302.53;2084904;28;20568;-58
2023/06/09 09:36:03;;;;;;;15.88;3.50;;;;;;;25.28;48.13;96297.06;2094241;27;20574;-57
2023/06/09 09:37:09;;;;;;;12.50;3.33;;;;;;;25.74;48.07;96299.13;2096245;28;20198;-57
2023/06/09 09:39:31;;;;;;;4.60;3.13;;;;;;;25.73;46.03;96289.44;2082318;28;20569;-57
2023/06/09 09:40:33;;;;;;;6.55;3.80;;;;;;;25.66;46.38;96296.47;2078059;28;20594;-57
2023/06/09 09:43:02;;;;;;;8.52;4.05;;;;;;;25.84;46.11;96293.56;2092668;27;21089;-57
2023/06/09 09:44:03;;;;;;;9.88;3.42;;;;;;;25.06;47.46;96302.06;2090197;28;20244;-57
2023/06/09 09:46:46;;;;;;;5.25;3.50;;;;;;;25.55;46.93;96279.81;2084171;28;21092;-57
2023/06/09 09:47:47;;;;;;;8.25;3.20;;;;;;;25.19;47.51;96288.22;2082568;28;20194;-58
2023/06/09 09:48:50;;;;;;;15.55;3.58;;;;;;;25.89;46.71;96284.03;2083847;28;20749;-58
2023/06/09 09:51:23;;;;;;;6.38;3.08;;;;;;;25.79;47.67;96279.88;2082064;28;20592;-57
2023/06/09 09:52:27;;;;;;;13.40;3.95;;;;;;;26.22;47.46;96291.94;2079033;28;20347;-58
2023/06/09 09:53:29;;;;;;;19.38;4.40;;;;;;;26.59;46.10;96278.00;2082301;28;20275;-58
2023/06/09 09:54:30;;;;;;;12.43;3.03;;;;;;;26.03;45.71;96273.59;2076797;28;20201;-58
2023/06/09 09:57:12;;;;;;;11.10;3.47;;;;;;;26.73;45.44;96267.38;2090111;28;20552;-57
2023/06/09 09:58:15;;;;;;;3.53;2.78;;;;;;;27.15;44.69;96267.03;2088149;28;20195;-58
2023/06/09 09:59:17;;;;;;;28.13;5.10;;;;;;;26.40;44.49;96283.63;2088291;28;20211;-58
2023/06/09 10:00:19;;;;;;;6.95;3.28;;;;;;;26.67;45.10;96276.09;2088858;28;20196;-58
2023/06/09 10:01:24;;;;;;;11.10;3.30;;;;;;;27.00;44.60;96281.22;2081074;28;20221;-60
2023/06/09 10:02:29;;;;;;;9.98;3.33;;;;;;;26.60;44.52;96275.16;2081337;28;20208;-60
2023/06/09 10:03:34;;;;;;;6.70;2.90;;;;;;;26.73;44.21;96270.03;2081534;28;20753;-60
2023/06/09 10:04:37;;;;;;;6.63;3.10;;;;;;;26.48;43.46;96276.56;2079443;28;20204;-60
2023/06/09 10:05:42;;;;;;;14.18;4.43;;;;;;;26.66;43.97;96277.09;2079040;28;20409;-60
2023/06/09 10:06:43;;;;;;;16.58;3.17;;;;;;;27.10;43.97;96274.78;2081700;28;20208;-59
2023/06/09 10:07:51;;;;;;;3.70;2.50;;;;;;;27.03;43.30;96274.66;2082073;28;20620;-59
2023/06/09 10:08:53;;;;;;;8.45;3.13;;;;;;;26.63;42.68;96285.50;2079817;28;20197;-59
2023/06/09 10:09:56;;;;;;;20.50;3.95;;;;;;;26.91;43.56;96276.94;2080531;28;20209;-59
2023/06/09 10:11:00;;;;;;;4.45;2.35;;;;;;;27.05;43.52;96281.50;2079905;28;20252;-59
2023/06/09 10:12:03;;;;;;;3.92;2.30;;;;;;;27.34;43.09;96282.56;2081171;28;20747;-59
2023/06/09 10:13:04;;;;;;;2.90;2.30;;;;;;;27.39;41.73;96279.38;2078716;28;20201;-57
2023/06/09 10:14:09;;;;;;;4.20;2.47;;;;;;;27.37;41.98;96279.50;2078170;28;20196;-57
2023/06/09 10:15:12;;;;;;;3.80;1.80;;;;;;;27.66;41.72;96277.91;2079232;28;20284;-57
2023/06/09 10:16:15;;;;;;;8.15;3.13;;;;;;;27.56;41.63;96276.53;2080490;28;20221;-57
2023/06/09 10:17:22;;;;;;;6.95;2.63;;;;;;;26.31;42.12;96292.72;2080850;28;20208;-58
2023/06/09 10:18:24;;;;;;;13.82;3.00;;;;;;;25.26;44.78;96283.84;2081523;28;20197;-57
2023/06/09 10:19:27;;;;;;;25.77;3.58;;;;;;;25.31;44.87;96294.03;2079791;28;20204;-57
2023/06/09 10:20:28;;;;;;;10.73;3.60;;;;;;;25.29;45.16;96284.50;2081407;28;20209;-57
2023/06/09 10:21:31;;;;;;;8.27;2.60;;;;;;;24.86;45.65;96285.56;2080555;28;20235;-57
2023/06/09 10:22:34;;;;;;;12.40;3.50;;;;;;;25.46;45.25;96285.34;2079550;28;20679;-57
2023/06/09 10:23:35;;;;;;;11.27;3.53;;;;;;;26.23;44.51;96284.72;2083059;28;20697;-57
2023/06/09 10:24:39;;;;;;;4.60;3.35;;;;;;;26.77;43.26;96280.41;2081587;28;20193;-58
2023/06/09 10:25:41;;;;;;;5.40;2.50;;;;;;;27.28;42.46;96275.25;2079895;28;20327;-57
2023/06/09 10:26:45;;;;;;;4.18;2.88;;;;;;;27.53;41.64;96278.56;2079130;28;20200;-57
2023/06/09 10:30:22;;;;;;;8.82;3.00;;;;;;;27.10;42.64;96274.78;2073245;28;20824;-58
2023/06/09 10:31:25;;;;;;;11.75;3.38;;;;;;;26.19;43.67;96280.75;2080403;28;20850;-58
2023/06/09 10:34:53;;;;;;;7.35;3.10;;;;;;;25.07;45.50;96271.69;2077038;28;20177;-59
2023/06/09 10:35:59;;;;;;;4.30;2.95;;;;;;;25.66;44.74;96275.09;2083099;28;20316;-59
2023/06/09 10:37:02;;;;;;;5.20;3.22;;;;;;;25.56;44.84;96268.13;2082064;28;20209;-59
2023/06/09 10:38:26;;;;;;;4.47;3.10;;;;;;;25.40;44.86;96277.00;2082399;28;20240;-59
2023/06/09 10:39:39;;;;;;;4.82;3.00;;;;;;;25.10;45.44;96276.69;2081744;28;20197;-59
2023/06/09 10:40:49;;;;;;;16.35;4.00;;;;;;;24.90;45.95;96265.53;2077669;28;20414;-59
2023/06/09 10:41:59;;;;;;;9.45;3.60;;;;;;;25.90;45.26;96271.50;2071787;28;20293;-59
2023/06/09 10:43:19;;;;;;;11.52;3.78;;;;;;;26.50;44.65;96279.88;2070125;28;20736;-59
2023/06/09 10:44:51;;;;;;;7.30;3.75;;;;;;;27.15;42.63;96275.06;2075249;28;20197;-60
2023/06/09 10:45:55;;;;;;;4.93;3.85;;;;;;;26.24;44.46;96273.03;2073039;28;20224;-59
2023/06/09 10:46:56;;;;;;;7.70;3.38;;;;;;;27.16;43.07;96272.22;2073909;28;20194;-60
2023/06/09 10:47:58;;;;;;;7.45;3.05;;;;;;;27.65;42.77;96270.06;2071713;28;20244;-59
2023/06/09 10:49:00;;;;;;;5.70;3.28;;;;;;;27.87;41.59;96276.31;2071072;28;20206;-59
2023/06/09 10:50:01;;;;;;;4.07;2.47;;;;;;;28.30;41.91;96273.78;2072863;28;20200;-59
2023/06/09 10:51:26;;;;;;;3.75;2.63;;;;;;;28.50;40.88;96273.16;2072491;28;20336;-60
2023/06/09 10:52:40;;;;;;;6.10;2.80;;;;;;;28.74;40.48;96276.53;2072407;28;20244;-59
2023/06/09 10:54:09;;;;;;;9.98;3.15;;;;;;;28.16;41.41;96266.59;2072332;28;20307;-59
2023/06/09 10:55:12;;;;;;;6.10;3.00;;;;;;;27.84;42.17;96272.16;2072978;28;20284;-59
2023/06/09 10:56:35;;;;;;;3.70;3.05;;;;;;;27.95;41.87;96264.69;2071390;28;20218;-59
2023/06/09 10:57:38;;;;;;;3.85;2.90;;;;;;;27.36;41.49;96261.78;2072265;28;20297;-60
2023/06/09 10:58:40;;;;;;;5.85;3.35;;;;;;;26.58;44.20;96261.09;2073785;28;20204;-59
2023/06/09 10:59:42;;;;;;;4.00;3.22;;;;;;;27.79;42.80;96261.16;2072752;28;20771;-60
2023/06/09 11:01:03;;;;;;;6.32;3.15;;;;;;;28.20;41.55;96262.50;2069722;28;20205;-60
2023/06/09 11:02:11;;;;;;;5.93;3.28;;;;;;;29.00;40.94;96260.66;2073575;28;20197;-60
2023/06/09 11:03:28;;;;;;;6.00;2.72;;;;;;;28.57;41.25;96262.47;2074133;28;20665;-60
2023/06/09 11:04:44;;;;;;;11.55;3.30;;;;;;;27.00;43.19;96258.97;2072650;28;20201;-59
2023/06/09 11:05:59;;;;;;;9.32;3.63;;;;;;;27.56;42.39;96257.78;2069528;28;20197;-59
2023/06/09 11:07:18;;;;;;;16.73;3.30;;;;;;;28.32;41.52;96257.50;2068730;28;20208;-59
2023/06/09 11:08:19;;;;;;;6.53;3.70;;;;;;;28.16;41.10;96264.75;2070337;28;20704;-59
2023/06/09 11:09:22;;;;;;;5.88;3.33;;;;;;;27.33;42.10;96259.47;2068127;28;20233;-59
2023/06/09 11:10:25;;;;;;;3.78;3.05;;;;;;;28.42;41.98;96260.69;2066269;28;20195;-59
2023/06/09 11:11:50;;;;;;;4.32;3.00;;;;;;;29.32;40.72;96258.44;2064871;28;20222;-60
2023/06/09 11:12:53;;;;;;;4.05;3.17;;;;;;;29.79;40.36;96255.19;2066418;28;20194;-60
2023/06/09 11:13:54;;;;;;;4.20;3.00;;;;;;;29.97;39.49;96260.06;2066752;28;20201;-60
2023/06/09 11:14:59;;;;;;;11.55;3.78;;;;;;;29.75;39.33;96262.00;2065204;28;20221;-59
2023/06/09 11:16:01;;;;;;;9.43;3.65;;;;;;;29.85;37.99;96267.84;2062665;28;20291;-60
2023/06/09 11:17:16;;;;;;;3.73;2.90;;;;;;;29.73;38.18;96251.44;2067503;28;20198;-57
2023/06/09 11:18:18;;;;;;;4.70;3.10;;;;;;;30.03;38.87;96259.28;2067931;28;20869;-58
2023/06/09 11:19:23;;;;;;;6.20;3.10;;;;;;;29.37;39.17;96248.94;2066465;28;20477;-58
2023/06/09 11:20:28;;;;;;;5.47;3.10;;;;;;;28.10;40.15;96252.09;2065709;28;20463;-57
2023/06/09 11:21:30;;;;;;;8.10;3.50;;;;;;;27.68;41.66;96261.63;2066030;28;20766;-57
2023/06/09 11:22:32;;;;;;;12.80;4.70;;;;;;;27.96;41.03;96247.53;2068435;28;20505;-57
2023/06/09 11:23:55;;;;;;;5.43;3.55;;;;;;;27.54;41.63;96253.41;2065661;28;20456;-57
2023/06/09 11:24:57;;;;;;;16.10;3.70;;;;;;;27.65;43.19;96240.56;2066352;28;20195;-57
2023/06/09 11:25:59;;;;;;;9.35;3.88;;;;;;;27.69;42.39;96247.19;2064638;28;20309;-57
2023/06/09 11:27:17;;;;;;;9.02;3.83;;;;;;;28.06;41.94;96242.75;2066696;28;20669;-57
2023/06/09 11:28:20;;;;;;;8.05;4.15;;;;;;;28.65;41.23;96235.53;2066669;28;20729;-57
2023/06/09 11:29:21;;;;;;;12.07;3.80;;;;;;;28.81;40.73;96245.19;2067278;28;20248;-57
2023/06/09 11:30:29;;;;;;;4.47;3.20;;;;;;;29.45;40.68;96238.88;2065087;28;20774;-57
2023/06/09 11:31:47;;;;;;;4.03;3.03;;;;;;;29.46;39.45;96242.41;2065045;28;20229;-57
2023/06/09 11:32:50;;;;;;;5.10;3.45;;;;;;;29.88;39.37;96243.25;2065613;28;20829;-57
2023/06/09 11:33:55;;;;;;;6.90;3.67;;;;;;;29.56;40.18;96244.72;2066296;28;20206;-58
2023/06/09 11:34:58;;;;;;;4.63;3.47;;;;;;;29.30;40.59;96238.16;2067297;28;20206;-58
2023/06/09 11:36:00;;;;;;;8.13;5.40;;;;;;;29.07;40.97;96239.19;2068704;28;21005;-58
2023/06/09 11:37:09;;;;;;;45.17;27.33;;;;;;;28.64;41.17;96248.09;2069978;28;20201;-58
2023/06/09 11:38:18;;;;;;;141.27;87.68;;;;;;;28.61;41.25;96248.50;2060269;28;20508;-58
2023/06/09 11:39:21;;;;;;;102.70;62.10;;;;;;;28.63;41.23;96240.25;2066375;28;20550;-58
2023/06/09 11:40:26;;;;;;;167.97;69.80;;;;;;;28.67;40.74;96236.16;2067605;28;20547;-58
2023/06/09 11:41:28;;;;;;;10.63;4.53;;;;;;;27.62;41.56;96238.25;2065686;28;20464;-58
2023/06/09 11:42:31;;;;;;;19.43;3.27;;;;;;;27.23;42.18;96233.97;2065787;28;20428;-58
2023/06/09 11:43:33;;;;;;;21.40;4.43;;;;;;;26.54;43.33;96235.72;2065934;28;20432;-57
2023/06/09 11:44:36;;;;;;;17.23;4.70;;;;;;;26.85;42.92;96235.63;2068439;28;20431;-58
2023/06/09 11:45:37;;;;;;;20.75;7.03;;;;;;;26.68;43.15;96232.25;2067526;28;20431;-58
2023/06/09 11:46:39;;;;;;;304.38;146.50;;;;;;;27.32;42.72;96235.53;2068739;28;20252;-58
2023/06/09 11:47:42;;;;;;;215.95;85.18;;;;;;;27.56;42.19;96239.81;2066622;28;20388;-58
2023/06/09 11:49:04;;;;;;;28.17;13.15;;;;;;;26.81;41.42;96228.97;2066499;28;20206;-58
2023/06/09 11:50:11;;;;;;;5.82;3.50;;;;;;;26.31;41.82;96233.00;2065388;28;20199;-57
2023/06/09 11:51:13;;;;;;;7.60;3.13;;;;;;;26.73;41.86;96235.25;2064765;28;20283;-58
2023/06/09 11:52:16;;;;;;;9.23;3.70;;;;;;;27.17;41.87;96239.03;2064023;28;20210;-58
2023/06/09 11:53:21;;;;;;;10.85;3.17;;;;;;;26.91;42.44;96234.09;2063989;28;20198;-57
2023/06/09 11:54:42;;;;;;;5.45;3.00;;;;;;;26.82;42.62;96229.84;2064758;28;20201;-58
2023/06/09 11:55:45;;;;;;;5.18;2.95;;;;;;;27.36;42.67;96231.47;2065571;28;20665;-58
2023/06/09 11:56:48;;;;;;;40.70;21.02;;;;;;;28.50;41.17;96231.03;2067459;28;20240;-58
2023/06/09 11:57:50;;;;;;;270.45;110.65;;;;;;;29.48;40.02;96225.03;2066188;28;20217;-58
2023/06/09 11:58:56;;;;;;;18.40;9.10;;;;;;;29.91;39.10;96226.69;2067954;28;20203;-61
2023/06/09 12:00:14;;;;;;;8.52;5.90;;;;;;;30.05;38.06;96224.06;2060538;28;20206;-59
2023/06/09 12:01:19;;;;;;;6.93;3.33;;;;;;;29.98;37.59;96229.44;2059973;28;20226;-59
2023/06/09 12:02:21;;;;;;;5.25;2.70;;;;;;;29.72;38.89;96230.94;2063302;28;20622;-59
2023/06/09 12:03:23;;;;;;;38.63;4.38;;;;;;;28.14;40.21;96223.03;2068285;28;20218;-59
2023/06/09 12:04:25;;;;;;;3.70;2.67;;;;;;;28.55;38.31;96224.28;2066246;28;20194;-59
2023/06/09 12:05:27;;;;;;;5.25;2.70;;;;;;;27.68;39.73;96219.56;2066295;28;20297;-59
2023/06/09 12:06:31;;;;;;;10.68;2.78;;;;;;;28.17;39.27;96219.97;2066246;28;20575;-59
2023/06/09 12:07:32;;;;;;;7.30;2.80;;;;;;;27.48;40.58;96213.13;2067466;28;20248;-59
2023/06/09 12:08:34;;;;;;;7.65;2.60;;;;;;;29.04;39.56;96212.72;2069294;28;20275;-59
2023/06/09 12:09:35;;;;;;;5.03;2.70;;;;;;;29.91;38.46;96212.44;2068656;28;20205;-58
2023/06/09 12:10:37;;;;;;;6.10;2.35;;;;;;;30.16;37.50;96204.66;2065614;28;20333;-58
2023/06/09 12:11:49;;;;;;;7.90;2.40;;;;;;;30.57;37.20;96209.09;2065308;28;20198;-59
2023/06/09 12:12:53;;;;;;;8.53;2.33;;;;;;;29.77;36.34;96211.50;2065744;28;20428;-60
2023/06/09 12:13:55;;;;;;;5.23;2.57;;;;;;;30.32;36.68;96208.81;2069224;28;20432;-58
2023/06/09 12:14:57;;;;;;;4.60;2.00;;;;;;;31.06;36.69;96204.38;2069130;28;20411;-58
2023/06/09 12:16:01;;;;;;;4.10;2.57;;;;;;;31.56;35.03;96213.81;2067138;28;20463;-58
2023/06/09 12:17:03;;;;;;;4.07;2.50;;;;;;;31.57;34.39;96207.38;2072575;28;20891;-57
2023/06/09 12:18:05;;;;;;;4.60;2.60;;;;;;;31.23;34.28;96201.25;2058907;28;20461;-57
2023/06/09 12:19:09;;;;;;;2.50;2.00;;;;;;;31.88;34.34;96212.09;2058250;28;20468;-57
2023/06/09 12:20:36;;;;;;;2.47;2.20;;;;;;;31.86;33.77;96214.16;2063770;28;20431;-57
2023/06/09 12:21:38;;;;;;;4.40;2.40;;;;;;;30.95;33.78;96197.69;2064244;28;20531;-58
2023/06/09 12:22:41;;;;;;;5.13;2.33;;;;;;;30.06;35.75;96204.22;2068213;28;20985;-59
2023/06/09 12:23:43;;;;;;;8.57;2.50;;;;;;;30.67;34.81;96205.19;2065708;28;20436;-59
2023/06/09 12:24:45;;;;;;;5.23;1.90;;;;;;;31.47;34.60;96209.69;2065875;28;20501;-59
2023/06/09 12:25:48;;;;;;;2.87;2.07;;;;;;;31.19;34.77;96203.53;2064755;28;20471;-58
2023/06/09 12:26:50;;;;;;;7.57;2.47;;;;;;;31.80;32.88;96208.81;2066549;28;20489;-58
2023/06/09 12:27:57;;;;;;;3.97;2.07;;;;;;;30.19;34.06;96203.41;2066975;28;20424;-58
2023/06/09 12:29:01;;;;;;;8.03;5.40;;;;;;;30.58;34.00;96208.06;2065453;28;20800;-58
2023/06/09 12:30:03;;;;;;;36.47;26.10;;;;;;;31.27;33.74;96213.25;2066015;28;20469;-58
2023/06/09 12:31:11;;;;;;;82.23;57.93;;;;;;;31.78;33.59;96210.88;2066377;28;20458;-58
2023/06/09 12:32:23;;;;;;;8.90;6.07;;;;;;;31.88;32.59;96211.25;2066381;28;20453;-58
2023/06/09 12:33:26;;;;;;;3.20;2.20;;;;;;;32.15;32.06;96208.41;2065943;28;20436;-59
2023/06/09 12:34:34;;;;;;;3.97;3.10;;;;;;;31.01;33.91;96206.84;2064490;28;20697;-58
2023/06/09 12:35:43;;;;;;;4.43;2.17;;;;;;;31.64;34.00;96215.47;2064260;28;20435;-58
2023/06/09 12:36:47;;;;;;;5.60;2.37;;;;;;;30.81;33.62;96216.78;2068302;28;20473;-59
2023/06/09 12:37:49;;;;;;;14.30;2.70;;;;;;;29.99;35.03;96204.16;2066659;28;20454;-58
2023/06/09 12:38:50;;;;;;;8.03;2.47;;;;;;;28.54;36.92;96204.63;2065828;28;20993;-59
2023/06/09 12:40:08;;;;;;;3.73;2.77;;;;;;;28.58;37.42;96208.63;2073546;28;20440;-59
2023/06/09 12:41:15;;;;;;;3.43;2.40;;;;;;;28.39;37.78;96202.03;2068296;28;20459;-59
2023/06/09 12:42:17;;;;;;;3.63;3.10;;;;;;;28.01;38.54;96202.19;2062937;28;20833;-59
2023/06/09 12:43:20;;;;;;;2.90;2.17;;;;;;;29.54;37.35;96193.81;2063532;28;20973;-57
2023/06/09 12:44:29;;;;;;;4.40;3.13;;;;;;;30.11;36.78;96196.34;2063009;28;20942;-58
2023/06/09 12:45:33;;;;;;;8.63;2.70;;;;;;;30.51;36.05;96196.44;2066619;28;20483;-58
2023/06/09 12:46:36;;;;;;;6.60;2.30;;;;;;;29.92;37.43;96198.78;2065666;28;20444;-60
2023/06/09 12:47:46;;;;;;;41.43;32.33;;;;;;;29.68;37.32;96192.03;2066072;28;20512;-60
2023/06/09 12:48:55;;;;;;;30.63;20.03;;;;;;;30.33;36.79;96198.88;2068237;28;20439;-60
2023/06/09 12:49:59;;;;;;;6.03;4.90;;;;;;;30.93;35.97;96180.94;2067581;28;20442;-60
2023/06/09 12:51:00;;;;;;;8.23;2.93;;;;;;;30.26;35.29;96188.94;2067257;28;20463;-59
2023/06/09 12:52:02;;;;;;;7.43;2.80;;;;;;;30.04;36.20;96201.72;2068810;28;20450;-60
2023/06/09 12:53:09;;;;;;;8.60;4.03;;;;;;;30.90;35.39;96194.81;2068469;28;20473;-59
2023/06/09 12:54:12;;;;;;;4.83;2.73;;;;;;;30.51;35.08;96171.38;2063418;28;20424;-60
2023/06/09 12:55:15;;;;;;;3.70;2.63;;;;;;;29.04;35.69;96195.75;2064445;28;20432;-59
2023/06/09 12:56:17;;;;;;;5.07;2.80;;;;;;;28.66;36.45;96186.16;2063575;28;20957;-60
2023/06/09 12:57:19;;;;;;;4.87;2.90;;;;;;;29.09;36.43;96174.50;2072741;28;20458;-60
2023/06/09 12:58:20;;;;;;;17.77;3.03;;;;;;;29.78;36.38;96187.09;2072689;28;21001;-60
2023/06/09 12:59:23;;;;;;;5.70;3.00;;;;;;;30.97;35.89;96186.72;2066186;28;20436;-60
2023/06/09 13:00:24;;;;;;;3.67;2.50;;;;;;;31.86;34.98;96179.06;2066372;28;20463;-60
2023/06/09 13:01:30;;;;;;;8.77;2.03;;;;;;;32.40;34.56;96187.75;2067220;28;20471;-60
2023/06/09 13:02:33;;;;;;;4.67;2.70;;;;;;;30.56;35.08;96182.38;2066438;28;20440;-59
2023/06/09 13:03:34;;;;;;;11.73;3.23;;;;;;;28.82;37.24;96187.75;2065899;28;20930;-59
2023/06/09 13:04:37;;;;;;;8.50;3.13;;;;;;;29.39;37.07;96182.38;2067199;28;20426;-60
2023/06/09 13:05:39;;;;;;;6.03;2.47;;;;;;;28.42;38.37;96190.06;2063725;28;20443;-60
2023/06/09 13:06:40;;;;;;;5.77;2.60;;;;;;;28.59;37.13;96194.13;2066306;28;20535;-59
2023/06/09 13:07:43;;;;;;;4.60;2.53;;;;;;;29.64;36.71;96180.84;2067588;28;21057;-60
2023/06/09 13:08:45;;;;;;;3.20;1.97;;;;;;;30.60;35.77;96184.47;2065394;28;20423;-60
2023/06/09 13:09:46;;;;;;;6.33;2.67;;;;;;;31.23;34.56;96188.56;2065139;28;21110;-60
2023/06/09 13:10:48;;;;;;;5.60;2.90;;;;;;;31.36;33.88;96193.13;2065546;28;20545;-60
2023/06/09 13:11:49;;;;;;;4.30;2.33;;;;;;;31.76;34.22;96184.09;2064112;28;20428;-58
2023/06/09 13:12:51;;;;;;;5.00;2.27;;;;;;;32.20;33.47;96182.47;2066668;28;20431;-58
2023/06/09 13:13:53;;;;;;;4.30;2.90;;;;;;;32.43;33.50;96185.63;2068625;28;20435;-58
2023/06/09 13:14:54;;;;;;;3.20;2.47;;;;;;;32.39;32.87;96179.84;2066358;28;20431;-58
2023/06/09 13:16:00;;;;;;;2.20;1.93;;;;;;;31.83;33.04;96187.59;2066757;28;20542;-58
2023/06/09 13:17:01;;;;;;;4.33;2.17;;;;;;;31.50;33.80;96182.28;2065348;28;20451;-58
2023/06/09 13:18:03;;;;;;;10.60;2.50;;;;;;;31.75;33.30;96185.97;2066457;28;20431;-58
2023/06/09 13:19:05;;;;;;;17.37;3.27;;;;;;;30.88;34.41;96182.56;2065186;28;20912;-58
2023/06/09 13:20:06;;;;;;;20.73;3.30;;;;;;;31.04;35.23;96184.84;2063816;28;20424;-58
2023/06/09 13:21:08;;;;;;;4.70;2.30;;;;;;;30.10;36.35;96176.66;2064568;28;20826;-58
2023/06/09 13:22:10;;;;;;;9.77;2.57;;;;;;;29.61;37.64;96178.56;2066264;28;20432;-58
2023/06/09 13:23:11;;;;;;;7.87;2.40;;;;;;;31.03;36.43;96182.34;2067875;28;20602;-58
2023/06/09 13:24:13;;;;;;;7.83;2.60;;;;;;;31.43;36.41;96168.84;2066047;28;20511;-58
2023/06/09 13:25:16;;;;;;;8.83;2.70;;;;;;;31.31;35.74;96187.50;2065365;28;20431;-57
2023/06/09 13:26:18;;;;;;;6.77;3.00;;;;;;;29.95;37.27;96192.16;2064586;28;20462;-58
2023/06/09 13:27:19;;;;;;;5.33;2.60;;;;;;;30.59;37.08;96188.19;2066333;28;20432;-58
2023/06/09 13:28:21;;;;;;;10.73;2.67;;;;;;;30.36;35.74;96183.16;2065597;28;20424;-57
2023/06/09 13:29:23;;;;;;;5.30;2.60;;;;;;;28.75;37.62;96182.34;2063482;28;20428;-58
2023/06/09 13:30:25;;;;;;;8.10;3.00;;;;;;;28.98;38.64;96179.41;2064328;28;20424;-57
2023/06/09 13:31:26;;;;;;;9.00;4.50;;;;;;;30.06;37.40;96183.50;2062886;28;20459;-58
2023/06/09 13:32:29;;;;;;;3.83;2.40;;;;;;;28.06;40.09;96173.00;2065427;28;20736;-59
2023/06/09 13:33:30;;;;;;;5.33;2.50;;;;;;;28.43;40.48;96189.88;2064033;28;20427;-59
2023/06/09 13:34:32;;;;;;;9.47;2.87;;;;;;;28.51;39.14;96188.91;2065360;28;20427;-60
2023/06/09 13:35:33;;;;;;;2.90;2.40;;;;;;;28.37;39.54;96190.66;2064900;28;20491;-59
2023/06/09 13:36:35;;;;;;;7.60;2.70;;;;;;;29.10;38.92;96177.00;2068557;28;20465;-59
2023/06/09 13:37:37;;;;;;;3.60;2.30;;;;;;;29.26;38.76;96177.72;2068239;28;20428;-58
2023/06/09 13:38:39;;;;;;;3.07;2.27;;;;;;;29.47;38.42;96177.66;2064020;28;20627;-59
2023/06/09 13:39:40;;;;;;;3.57;2.17;;;;;;;30.51;37.97;96174.91;2065759;28;20954;-60
2023/06/09 13:40:44;;;;;;;4.50;2.47;;;;;;;30.95;36.80;96176.13;2067389;28;20424;-60
2023/06/09 13:41:46;;;;;;;3.80;2.50;;;;;;;31.27;36.51;96188.97;2065320;28;21099;-59
2023/06/09 13:42:52;;;;;;;6.37;2.60;;;;;;;31.18;35.83;96179.47;2066398;28;20978;-59
2023/06/09 13:43:54;;;;;;;6.53;2.20;;;;;;;29.13;36.51;96181.16;2065239;28;20824;-59
2023/06/09 13:44:55;;;;;;;10.37;3.03;;;;;;;28.84;37.83;96178.47;2067027;28;20474;-59
2023/06/09 13:45:57;;;;;;;5.03;2.90;;;;;;;28.32;38.23;96180.47;2066005;28;20545;-59
2023/06/09 13:46:58;;;;;;;9.70;2.93;;;;;;;29.15;37.84;96185.31;2067209;28;20512;-59
2023/06/09 13:48:00;;;;;;;4.20;2.53;;;;;;;29.20;36.92;96183.88;2068145;28;21003;-60
2023/06/09 13:49:03;;;;;;;6.73;2.60;;;;;;;29.79;36.50;96167.25;2066882;28;20432;-59
2023/06/09 13:50:06;;;;;;;3.97;2.87;;;;;;;28.52;36.63;96177.16;2067340;28;20435;-59
2023/06/09 13:51:07;;;;;;;3.93;2.13;;;;;;;29.67;36.19;96173.41;2065044;28;20471;-59
2023/06/09 13:52:09;;;;;;;6.80;2.53;;;;;;;29.34;36.48;96169.50;2068420;28;20440;-59
2023/06/09 13:53:10;;;;;;;3.43;2.20;;;;;;;30.13;36.51;96170.91;2068107;28;20432;-60
2023/06/09 13:54:12;;;;;;;5.23;2.30;;;;;;;31.16;36.00;96170.75;2066358;28;20432;-59
2023/06/09 13:55:13;;;;;;;3.00;2.50;;;;;;;31.39;34.85;96170.31;2064947;28;20431;-60
2023/06/09 13:56:20;;;;;;;5.07;2.27;;;;;;;31.78;34.42;96165.81;2066482;28;20456;-60
2023/06/09 13:57:21;;;;;;;2.70;2.00;;;;;;;32.39;34.06;96169.03;2067967;28;20915;-60
2023/06/09 13:58:23;;;;;;;4.93;2.77;;;;;;;31.49;34.46;96164.44;2067890;28;20428;-59
2023/06/09 13:59:25;;;;;;;4.97;2.50;;;;;;;30.25;35.84;96157.66;2068705;28;20485;-59
2023/06/09 14:00:26;;;;;;;5.53;2.50;;;;;;;30.27;35.45;96170.91;2068189;28;20468;-59
2023/06/09 14:01:28;;;;;;;5.20;2.00;;;;;;;30.60;35.52;96149.44;2067213;28;20467;-59
2023/06/09 14:02:30;;;;;;;6.07;2.60;;;;;;;30.96;35.32;96163.50;2063044;28;20439;-59
2023/06/09 14:03:33;;;;;;;6.20;2.30;;;;;;;30.36;35.84;96163.47;2065112;28;20439;-58
2023/06/09 14:04:35;;;;;;;6.10;2.40;;;;;;;31.23;35.59;96156.22;2063470;28;20425;-58
2023/06/09 14:05:37;;;;;;;3.83;2.43;;;;;;;31.56;34.97;96166.06;2063076;28;20513;-58
2023/06/09 14:06:40;;;;;;;2.93;1.77;;;;;;;31.35;34.65;96161.81;2065432;28;20455;-58
2023/06/09 14:07:42;;;;;;;2.20;1.83;;;;;;;29.30;36.49;96173.63;2065164;28;20449;-59
2023/06/09 14:08:46;;;;;;;2.40;2.13;;;;;;;29.88;36.25;96161.69;2064728;28;20757;-58
2023/06/09 14:09:48;;;;;;;2.57;1.97;;;;;;;29.98;36.55;96151.41;2063722;28;20779;-58
2023/06/09 14:10:50;;;;;;;4.03;2.30;;;;;;;29.78;36.81;96162.06;2063858;28;20511;-58
2023/06/09 14:11:51;;;;;;;4.50;2.40;;;;;;;30.17;36.69;96167.78;2064804;28;20424;-58
2023/06/09 14:12:53;;;;;;;3.00;2.27;;;;;;;30.45;36.56;96160.38;2065106;28;20939;-58
2023/06/09 14:13:58;;;;;;;2.70;2.27;;;;;;;31.16;35.68;96155.44;2064257;28;21126;-58
2023/06/09 14:14:59;;;;;;;3.30;2.40;;;;;;;31.71;35.46;96156.94;2063587;28;20938;-58
2023/06/09 14:16:03;;;;;;;3.90;2.10;;;;;;;31.74;35.20;96154.66;2063286;28;20483;-58
2023/06/09 14:17:05;;;;;;;8.83;2.90;;;;;;;32.17;35.03;96152.34;2065026;28;20923;-58
2023/06/09 14:18:07;;;;;;;5.00;2.43;;;;;;;32.34;34.18;96158.91;2063696;28;20426;-58
2023/06/09 14:19:09;;;;;;;2.53;1.93;;;;;;;31.90;34.39;96157.88;2064001;28;20471;-58
2023/06/09 14:20:11;;;;;;;4.40;2.73;;;;;;;32.18;33.70;96151.28;2064790;28;20424;-58
2023/06/09 14:21:12;;;;;;;3.20;1.80;;;;;;;30.90;34.90;96142.78;2063812;28;20474;-58
2023/06/09 14:22:14;;;;;;;12.73;2.80;;;;;;;31.05;35.15;96158.72;2064210;28;20435;-58
2023/06/09 14:23:16;;;;;;;3.30;2.20;;;;;;;30.90;35.63;96154.38;2062765;28;20486;-58
2023/06/09 14:24:18;;;;;;;3.43;2.43;;;;;;;31.24;34.73;96154.38;2064743;28;20423;-59
2023/06/09 14:25:21;;;;;;;4.60;2.43;;;;;;;31.81;34.09;96151.91;2064594;28;20432;-60
2023/06/09 14:26:23;;;;;;;2.50;2.10;;;;;;;31.61;34.72;96151.97;2062505;28;20539;-59
2023/06/09 14:27:25;;;;;;;3.83;2.13;;;;;;;31.71;34.50;96146.97;2065245;28;20511;-59
2023/06/09 14:28:26;;;;;;;3.47;2.60;;;;;;;31.60;34.43;96139.50;2066316;28;20603;-59
2023/06/09 14:29:32;;;;;;;5.93;2.80;;;;;;;31.35;35.06;96145.63;2065430;28;20439;-60
2023/06/09 14:30:34;;;;;;;2.80;2.47;;;;;;;31.28;34.74;96144.81;2063958;28;20436;-60
2023/06/09 14:31:36;;;;;;;2.60;1.93;;;;;;;29.81;36.20;96148.19;2063942;28;20436;-59
2023/06/09 14:32:39;;;;;;;5.83;2.50;;;;;;;29.20;36.96;96148.94;2066660;28;20949;-59
2023/06/09 14:33:40;;;;;;;4.00;2.20;;;;;;;29.86;36.84;96147.59;2063465;28;20428;-59
2023/06/09 14:34:42;;;;;;;3.33;1.93;;;;;;;30.66;35.90;96141.56;2063795;28;20472;-59
2023/06/09 14:35:45;;;;;;;5.57;2.90;;;;;;;30.37;35.35;96138.19;2066060;28;20486;-60
2023/06/09 14:36:47;;;;;;;5.90;2.97;;;;;;;29.16;37.39;96133.19;2066362;28;20423;-59
2023/06/09 14:37:57;;;;;;;3.60;2.67;;;;;;;29.81;36.69;96130.22;2064811;28;20427;-59
2023/06/09 14:38:58;;;;;;;4.00;2.50;;;;;;;29.49;35.81;96134.44;2065135;28;20432;-59
2023/06/09 14:40:00;;;;;;;4.17;2.50;;;;;;;29.82;36.10;96125.66;2064162;28;20431;-59
2023/06/09 14:41:02;;;;;;;3.23;2.30;;;;;;;30.66;36.09;96118.13;2067104;28;20581;-60